Time;durP1;ratioP1;P1;durP2;ratioP2;P2;SDS_P1;SDS_P2;PMS_P1;PMS_P2;Temp;Humidity;BMP_temperature;BMP_pressure;BME280_temperature;BME280_humidity;BME280_pressure;Samples;Min_cycle;Max_cycle;Signal;HPM_P1;HPM_P2
2022/05/05 00:00:06;;;;;;;6.83;5.73;;;11.90;99.90;;;;;;4849857;29;20239;-76
2022/05/05 00:02:32;;;;;;;5.73;5.13;;;11.90;99.90;;;;;;4864794;29;20203;-76
2022/05/05 00:04:58;;;;;;;5.70;5.03;;;12.00;99.90;;;;;;4849716;29;20201;-77
2022/05/05 00:07:23;;;;;;;6.00;5.37;;;11.90;99.90;;;;;;4834130;29;20187;-76
2022/05/05 00:09:49;;;;;;;6.53;5.70;;;12.00;99.90;;;;;;4834174;29;20249;-76
2022/05/05 00:14:58;;;;;;;5.50;5.00;;;11.90;99.90;;;;;;4867639;29;20215;-76
2022/05/05 00:17:25;;;;;;;5.80;4.93;;;11.90;99.90;;;;;;4849406;29;20664;-76
2022/05/05 00:19:50;;;;;;;5.63;5.03;;;11.90;99.90;;;;;;4849212;29;20184;-76
2022/05/05 00:22:16;;;;;;;5.63;5.07;;;11.90;99.90;;;;;;4849189;29;20225;-77
2022/05/05 00:24:41;;;;;;;6.43;5.53;;;11.80;99.90;;;;;;4864702;29;20215;-76
2022/05/05 00:27:08;;;;;;;5.77;4.90;;;11.80;99.90;;;;;;4881474;29;20180;-77
2022/05/05 00:29:33;;;;;;;5.43;4.90;;;11.90;99.90;;;;;;4849359;29;20191;-76
2022/05/05 00:31:59;;;;;;;6.50;5.23;;;12.00;99.90;;;;;;4849139;29;20191;-76
2022/05/05 00:34:25;;;;;;;5.57;5.00;;;11.90;99.90;;;;;;4864393;29;20206;-76
2022/05/05 00:36:51;;;;;;;5.93;5.40;;;12.00;99.90;;;;;;4864443;29;20552;-76
2022/05/05 00:39:16;;;;;;;5.53;5.00;;;12.00;99.90;;;;;;4833953;29;20194;-76
2022/05/05 00:41:45;;;;;;;5.20;4.73;;;12.00;99.90;;;;;;4879728;29;20267;-76
2022/05/05 00:44:12;;;;;;;5.40;4.90;;;11.90;99.90;;;;;;4848834;29;20189;-77
2022/05/05 00:46:38;;;;;;;5.77;5.27;;;11.80;99.90;;;;;;4833730;29;20564;-76
2022/05/05 00:49:04;;;;;;;5.80;5.13;;;11.80;99.90;;;;;;4848958;29;20213;-76
2022/05/05 00:51:30;;;;;;;6.00;5.40;;;11.70;99.90;;;;;;4848667;29;20236;-76
2022/05/05 00:53:56;;;;;;;6.33;5.53;;;11.80;99.90;;;;;;4880835;29;20187;-76
2022/05/05 00:56:24;;;;;;;6.20;5.60;;;11.80;99.90;;;;;;4864163;29;20199;-76
2022/05/05 00:58:51;;;;;;;6.00;5.40;;;11.80;99.90;;;;;;4864322;29;20184;-76
2022/05/05 01:01:18;;;;;;;6.00;5.50;;;11.70;99.90;;;;;;4848803;29;20663;-77
2022/05/05 01:03:45;;;;;;;5.97;5.47;;;11.70;99.90;;;;;;4863304;29;20216;-76
2022/05/05 01:06:13;;;;;;;5.93;5.43;;;11.80;99.90;;;;;;4864252;29;20221;-77
2022/05/05 01:08:39;;;;;;;6.43;5.67;;;11.90;99.90;;;;;;4863808;29;20184;-76
2022/05/05 01:11:04;;;;;;;6.03;5.43;;;11.90;99.90;;;;;;4864022;29;20219;-77
2022/05/05 01:13:31;;;;;;;6.33;5.73;;;11.80;99.90;;;;;;4848279;29;20278;-76
2022/05/05 01:15:57;;;;;;;6.57;5.97;;;11.80;99.90;;;;;;4863776;29;20291;-76
2022/05/05 01:18:23;;;;;;;6.10;5.60;;;11.80;99.90;;;;;;4848485;29;20188;-76
2022/05/05 01:20:51;;;;;;;6.70;5.30;;;11.90;99.90;;;;;;4863361;29;20211;-76
2022/05/05 01:23:17;;;;;;;5.60;5.10;;;11.90;99.90;;;;;;4863642;29;20222;-76
2022/05/05 01:28:32;;;;;;;5.73;5.23;;;11.90;99.90;;;;;;4880484;29;20305;-77
2022/05/05 01:30:59;;;;;;;5.60;5.10;;;11.80;99.90;;;;;;4848255;29;20655;-76
2022/05/05 01:33:26;;;;;;;7.43;5.47;;;11.70;99.90;;;;;;4833146;29;20197;-76
2022/05/05 01:36:32;;;;;;;5.83;5.23;;;11.60;99.90;;;;;;4832948;29;20699;-76
2022/05/05 01:38:57;;;;;;;5.80;5.20;;;11.70;99.90;;;;;;4858800;29;20191;-78
2022/05/05 01:41:23;;;;;;;6.13;5.53;;;11.60;99.90;;;;;;4832519;29;20188;-77
2022/05/05 01:43:49;;;;;;;5.93;5.40;;;11.60;99.90;;;;;;4879794;29;20239;-77
2022/05/05 01:46:15;;;;;;;8.20;5.73;;;11.60;99.90;;;;;;4863174;29;20299;-77
2022/05/05 01:48:40;;;;;;;6.37;5.37;;;11.40;99.90;;;;;;4847790;29;20739;-76
2022/05/05 01:51:06;;;;;;;6.20;5.60;;;11.40;99.90;;;;;;4863271;29;20197;-77
2022/05/05 01:53:36;;;;;;;6.10;5.20;;;11.50;99.90;;;;;;4832380;29;20191;-77
2022/05/05 01:56:08;;;;;;;6.20;5.60;;;11.60;99.90;;;;;;4879698;29;20291;-78
2022/05/05 01:58:33;;;;;;;6.07;5.50;;;11.60;99.90;;;;;;4848524;29;20199;-77
2022/05/05 02:00:59;;;;;;;5.97;5.37;;;11.60;99.90;;;;;;4832632;29;20196;-77
2022/05/05 02:03:25;;;;;;;5.97;5.43;;;11.50;99.90;;;;;;4847401;29;20218;-77
2022/05/05 02:05:50;;;;;;;5.67;5.17;;;11.20;99.90;;;;;;4832299;29;20205;-77
2022/05/05 02:08:16;;;;;;;6.13;5.53;;;11.00;99.90;;;;;;4832205;29;20241;-77
2022/05/05 02:10:42;;;;;;;6.90;5.73;;;10.80;99.90;;;;;;4832291;29;20184;-77
2022/05/05 02:13:09;;;;;;;5.97;5.47;;;10.80;99.90;;;;;;4832298;29;20187;-77
2022/05/05 02:15:35;;;;;;;5.90;5.30;;;10.80;99.90;;;;;;4861949;29;20272;-76
2022/05/05 02:18:12;;;;;;;5.67;5.13;;;10.60;99.90;;;;;;4847212;29;20651;-77
2022/05/05 02:20:40;;;;;;;6.50;5.90;;;10.40;99.90;;;;;;4862394;29;20187;-77
2022/05/05 02:23:07;;;;;;;6.30;5.70;;;10.40;99.90;;;;;;4862191;29;20631;-77
2022/05/05 02:25:33;;;;;;;6.67;5.80;;;10.30;99.90;;;;;;4862429;29;20219;-77
2022/05/05 02:27:58;;;;;;;5.73;5.07;;;10.20;99.90;;;;;;4862544;29;20263;-77
2022/05/05 02:30:26;;;;;;;6.00;5.40;;;10.20;99.90;;;;;;4862431;29;20191;-77
2022/05/05 02:32:52;;;;;;;6.37;5.77;;;10.10;99.90;;;;;;4862315;29;20191;-77
2022/05/05 02:35:18;;;;;;;6.30;5.70;;;10.10;99.90;;;;;;4847106;29;20235;-77
2022/05/05 02:40:28;;;;;;;5.73;5.20;;;10.10;99.90;;;;;;4865196;29;20247;-77
2022/05/05 02:42:55;;;;;;;8.73;5.87;;;10.00;99.90;;;;;;4878753;29;20235;-77
2022/05/05 02:45:22;;;;;;;6.40;5.73;;;9.90;99.90;;;;;;4878839;29;20584;-77
2022/05/05 02:47:49;;;;;;;5.73;5.13;;;10.00;99.90;;;;;;4846891;29;20802;-77
2022/05/05 02:50:15;;;;;;;6.17;5.57;;;9.80;99.90;;;;;;4847020;29;20183;-77
2022/05/05 02:52:41;;;;;;;5.97;5.43;;;9.80;99.90;;;;;;4846772;29;20191;-77
2022/05/05 02:55:07;;;;;;;6.43;5.27;;;9.70;99.90;;;;;;4831834;29;20204;-77
2022/05/05 02:57:33;;;;;;;5.67;5.17;;;9.70;99.90;;;;;;4846871;29;20180;-78
2022/05/05 02:59:59;;;;;;;6.40;5.67;;;9.60;99.90;;;;;;4846715;29;20194;-77
2022/05/05 03:02:24;;;;;;;6.57;5.67;;;9.70;99.90;;;;;;4861774;29;20206;-77
2022/05/05 03:04:50;;;;;;;6.17;5.57;;;9.90;99.90;;;;;;4862064;29;20201;-77
2022/05/05 03:07:17;;;;;;;5.83;5.33;;;10.00;99.90;;;;;;4862112;29;20270;-77
2022/05/05 03:09:43;;;;;;;6.30;5.70;;;10.00;99.90;;;;;;4861879;29;20210;-77
2022/05/05 03:12:10;;;;;;;6.10;5.50;;;10.00;99.90;;;;;;4861690;29;20314;-77
2022/05/05 03:14:36;;;;;;;6.30;5.70;;;10.10;99.90;;;;;;4861937;29;20290;-77
2022/05/05 03:17:02;;;;;;;6.43;5.83;;;10.10;99.90;;;;;;4861698;29;20186;-77
2022/05/05 03:19:27;;;;;;;6.03;5.43;;;10.10;99.90;;;;;;4861560;29;20179;-78
2022/05/05 03:21:54;;;;;;;6.47;5.87;;;10.00;99.90;;;;;;4831005;29;20208;-76
2022/05/05 03:24:20;;;;;;;6.90;5.97;;;10.00;99.90;;;;;;4861757;29;20199;-77
2022/05/05 03:26:45;;;;;;;6.53;5.93;;;9.80;99.90;;;;;;4846041;29;20560;-77
2022/05/05 03:29:11;;;;;;;7.00;6.17;;;9.80;99.90;;;;;;4861840;29;20194;-77
2022/05/05 03:31:37;;;;;;;8.13;5.47;;;9.80;99.90;;;;;;4831123;29;20215;-77
2022/05/05 03:34:03;;;;;;;6.73;6.03;;;9.70;99.90;;;;;;4861596;29;20175;-76
2022/05/05 03:36:30;;;;;;;6.70;6.10;;;9.70;99.90;;;;;;4861558;29;20179;-77
2022/05/05 03:38:55;;;;;;;7.03;6.33;;;9.70;99.90;;;;;;4846584;29;20647;-77
2022/05/05 03:41:21;;;;;;;6.77;6.00;;;9.80;99.90;;;;;;4831117;29;20191;-77
2022/05/05 03:43:47;;;;;;;7.07;6.37;;;9.80;99.90;;;;;;4846135;29;20215;-76
2022/05/05 03:46:13;;;;;;;6.77;6.10;;;9.80;99.90;;;;;;4861519;29;20588;-78
2022/05/05 03:48:38;;;;;;;6.37;5.77;;;10.00;99.90;;;;;;4846145;29;20187;-77
2022/05/05 03:51:04;;;;;;;6.77;6.10;;;9.90;99.90;;;;;;4846201;29;20270;-78
2022/05/05 03:53:30;;;;;;;7.07;6.37;;;9.70;99.90;;;;;;4846287;29;20277;-77
2022/05/05 03:55:56;;;;;;;7.27;6.50;;;9.70;99.90;;;;;;4861531;29;20211;-76
2022/05/05 03:58:21;;;;;;;8.00;7.20;;;9.70;99.90;;;;;;4846291;29;20628;-76
2022/05/05 04:00:47;;;;;;;7.67;6.87;;;9.70;99.90;;;;;;4845941;29;20617;-77
2022/05/05 04:03:30;;;;;;;7.73;7.03;;;9.80;99.90;;;;;;4830739;29;20211;-77
2022/05/05 04:06:00;;;;;;;7.50;6.70;;;9.90;99.90;;;;;;4863841;29;20230;-77
2022/05/05 04:08:26;;;;;;;7.17;6.47;;;10.00;99.90;;;;;;4831334;29;20187;-77
2022/05/05 04:10:52;;;;;;;7.60;6.80;;;10.10;99.90;;;;;;4861431;29;20184;-77
2022/05/05 04:13:19;;;;;;;6.90;6.30;;;;;;;;;;4861122;29;20313;-77
2022/05/05 04:15:45;;;;;;;7.17;6.47;;;;;;;;;;4876690;29;20211;-78
2022/05/05 04:18:11;;;;;;;6.73;6.03;;;;;;;;;;4846179;29;20187;-77
2022/05/05 04:20:37;;;;;;;7.10;6.40;;;;;;;;;;4845666;29;20195;-78
2022/05/05 04:23:03;;;;;;;7.10;6.43;;;;;;;;;;4845911;29;20240;-78
2022/05/05 04:25:29;;;;;;;7.63;6.83;;;;;;;;;;4925546;23;20754;-77
2022/05/05 04:27:55;;;;;;;7.33;6.63;;;;;;;;;;4898349;29;20178;-76
2022/05/05 04:30:21;;;;;;;7.83;6.67;;;;;;;;;;4898535;29;20630;-76
2022/05/05 04:32:48;;;;;;;7.30;6.60;;;;;;;;;;4883080;29;20186;-77
2022/05/05 04:35:15;;;;;;;7.37;6.57;;;;;;;;;;4882986;29;20206;-77
2022/05/05 04:37:42;;;;;;;7.73;6.80;;;;;;;;;;4899102;29;20520;-76
2022/05/05 04:40:08;;;;;;;7.00;6.30;;;;;;;;;;4901884;29;20235;-76
2022/05/05 04:42:35;;;;;;;7.33;6.60;;;;;;;;;;4918469;29;20206;-76
2022/05/05 04:45:01;;;;;;;7.50;6.80;;;;;;;;;;4901838;29;20273;-77
2022/05/05 04:47:27;;;;;;;7.80;7.10;;;;;;;;;;4901750;29;20253;-76
2022/05/05 04:49:56;;;;;;;8.50;7.53;;;;;;;;;;4901578;29;20174;-76
2022/05/05 04:52:23;;;;;;;7.87;6.57;;;;;;;;;;4886274;29;20210;-76
2022/05/05 04:54:49;;;;;;;7.53;6.80;;;;;;;;;;4886044;29;20194;-76
2022/05/05 04:57:15;;;;;;;8.83;7.53;;;;;;;;;;4885810;29;20273;-76
2022/05/05 04:59:41;;;;;;;8.40;7.47;;;;;;;;;;4885937;29;20182;-76
2022/05/05 05:02:07;;;;;;;6.27;5.67;;;;;;;;;;4885632;29;20217;-75
2022/05/05 05:04:33;;;;;;;6.70;6.00;;;;;;;;;;4885954;29;20786;-75
2022/05/05 05:06:59;;;;;;;7.27;6.57;;;;;;;;;;4886069;29;20198;-76
2022/05/05 05:09:25;;;;;;;6.90;6.30;;;;;;;;;;4885847;29;20209;-76
2022/05/05 05:11:51;;;;;;;7.63;6.87;;;;;;;;;;4918042;29;20514;-75
2022/05/05 05:14:17;;;;;;;8.37;7.30;;;;;;;;;;4901495;29;20183;-76
2022/05/05 05:16:43;;;;;;;8.07;7.27;;;;;;;;;;4885788;29;20203;-76
2022/05/05 05:19:10;;;;;;;8.70;7.80;;;;;;;;;;4885739;29;20189;-76
2022/05/05 05:21:36;;;;;;;8.60;7.37;;;;;;;;;;4900639;29;20189;-76
2022/05/05 05:24:05;;;;;;;8.37;7.20;;;;;;;;;;4900763;29;20583;-76
2022/05/05 05:26:31;;;;;;;8.20;7.40;;;;;;;;;;4917920;29;20210;-75
2022/05/05 05:28:57;;;;;;;7.77;6.97;;;;;;;;;;4901051;29;20645;-75
2022/05/05 05:31:23;;;;;;;8.63;7.50;;;;;;;;;;4885584;29;20182;-76
2022/05/05 05:33:49;;;;;;;7.70;7.00;;;;;;;;;;4885283;29;20214;-75
2022/05/05 05:36:15;;;;;;;8.10;7.30;;;;;;;;;;4900790;29;20203;-75
2022/05/05 05:38:41;;;;;;;8.00;7.17;;;;;;;;;;4885275;29;20187;-75
2022/05/05 05:41:08;;;;;;;8.57;7.73;;;;;;;;;;4900887;29;20229;-75
2022/05/05 05:43:34;;;;;;;8.23;7.33;;;;;;;;;;4885178;29;20210;-74
2022/05/05 05:46:00;;;;;;;8.37;7.57;;;;;;;;;;4900634;29;20226;-74
2022/05/05 05:48:27;;;;;;;7.87;7.07;;;;;;;;;;4885161;29;20245;-74
2022/05/05 05:50:53;;;;;;;9.93;7.80;;;;;;;;;;4900615;29;20236;-75
2022/05/05 05:53:19;;;;;;;7.67;6.97;;;;;;;;;;4900349;29;20269;-75
2022/05/05 05:55:45;;;;;;;8.53;7.63;;;;;;;;;;4900254;29;20206;-75
2022/05/05 05:58:11;;;;;;;8.20;7.40;;;;;;;;;;4900391;29;20186;-75
2022/05/05 06:00:38;;;;;;;8.30;7.50;;;;;;;;;;4884756;29;20209;-75
2022/05/05 06:05:49;;;;;;;7.00;6.30;;;;;;;;;;4917347;29;20213;-75
2022/05/05 06:08:15;;;;;;;7.53;6.70;;;;;;;;;;4917117;29;20180;-74
2022/05/05 06:10:41;;;;;;;8.67;7.10;;;;;;;;;;4899917;29;20276;-74
2022/05/05 06:13:08;;;;;;;8.03;7.23;;;;;;;;;;4916891;29;20292;-73
2022/05/05 06:15:34;;;;;;;7.73;7.03;;;;;;;;;;4899825;29;20214;-73
2022/05/05 06:18:00;;;;;;;7.83;7.10;;;;;;;;;;4899894;29;20535;-74
2022/05/05 06:20:26;;;;;;;8.17;7.13;;;;;;;;;;4916523;29;20189;-73
2022/05/05 06:22:52;;;;;;;7.77;6.97;;;;;;;;;;4884335;29;20210;-75
2022/05/05 06:25:20;;;;;;;8.83;7.97;;;;;;;;;;4899870;29;20274;-76
2022/05/05 06:27:47;;;;;;;8.90;7.70;;;;;;;;;;4899716;29;20182;-75
2022/05/05 06:30:13;;;;;;;9.17;8.27;;;;;;;;;;4899927;29;20230;-76
2022/05/05 06:32:40;;;;;;;9.60;8.60;;;;;;;;;;4899789;29;20285;-76
2022/05/05 06:35:06;;;;;;;9.93;8.60;;;;;;;;;;4899496;29;20269;-76
2022/05/05 06:37:32;;;;;;;9.73;8.73;;;;;;;;;;4899557;29;20274;-75
2022/05/05 06:40:00;;;;;;;11.47;9.10;;;;;;;;;;4899648;29;20218;-75
2022/05/05 06:42:27;;;;;;;10.27;9.17;;;;;;;;;;4899526;29;20222;-76
2022/05/05 06:44:53;;;;;;;9.77;8.80;;;;;;;;;;4884292;29;20183;-77
2022/05/05 06:47:19;;;;;;;9.73;8.70;;;;;;;;;;4884101;29;20236;-75
2022/05/05 06:49:45;;;;;;;10.27;8.83;;;;;;;;;;4899651;29;20212;-75
2022/05/05 06:52:11;;;;;;;9.73;8.73;;;;;;;;;;4883793;29;20302;-76
2022/05/05 06:54:37;;;;;;;11.47;8.70;;;;;;;;;;4884007;29;20333;-76
2022/05/05 06:57:03;;;;;;;10.50;9.40;;;;;;;;;;4899445;29;20202;-76
2022/05/05 06:59:30;;;;;;;10.87;9.73;;;;;;;;;;4883642;29;20661;-76
2022/05/05 07:02:00;;;;;;;11.30;10.10;;;;;;;;;;4915318;29;20200;-75
2022/05/05 07:07:13;;;;;;;11.80;9.87;;;;;;;;;;4916567;29;20197;-77
2022/05/05 07:12:24;;;;;;;13.27;10.40;;;;;;;;;;4916228;29;20283;-76
2022/05/05 07:14:50;;;;;;;12.90;10.30;;;;;;;;;;4883726;29;20289;-77
2022/05/05 07:17:16;;;;;;;12.80;10.37;;;;;;;;;;4899096;29;20186;-77
2022/05/05 07:19:42;;;;;;;13.30;10.40;;;;;;;;;;4899065;29;20672;-77
2022/05/05 07:22:08;;;;;;;12.10;9.90;;;;;;;;;;4899050;29;20696;-77
2022/05/05 07:24:35;;;;;;;13.63;10.60;;;;;;;;;;4899016;29;20179;-77
2022/05/05 07:27:01;;;;;;;13.47;10.50;;;;;;;;;;4907119;29;20217;-76
2022/05/05 07:29:27;;;;;;;12.53;10.53;;;;;;;;;;4902481;29;20185;-76
2022/05/05 07:31:53;;;;;;;12.93;10.37;;;;;;;;;;4914730;29;20208;-77
2022/05/05 07:34:20;;;;;;;12.43;10.07;;;;;;;;;;4898989;29;20181;-77
2022/05/05 07:36:46;;;;;;;13.90;10.37;;;;;;;;;;4898803;29;20206;-77
2022/05/05 07:39:12;;;;;;;11.53;10.30;;;;;;;;;;4898807;29;20206;-77
2022/05/05 07:41:39;;;;;;;12.80;10.17;;;;;;;;;;4898265;29;20194;-76
2022/05/05 07:44:06;;;;;;;12.57;9.87;;;;;;;;;;4896981;29;20665;-76
2022/05/05 07:46:33;;;;;;;12.30;9.93;;;;;;;;;;4880142;29;20199;-77
2022/05/05 07:48:59;;;;;;;12.60;10.20;;;;;;;;;;4896776;29;20180;-77
2022/05/05 07:51:25;;;;;;;12.53;10.07;;;;;;;;;;4896853;29;20186;-76
2022/05/05 07:56:36;;;;;;;11.13;9.37;;;;;;;;;;4897032;29;20205;-77
2022/05/05 07:59:02;;;;;;;12.80;10.00;;;;;;;;;;4864526;29;20223;-76
2022/05/05 08:01:28;;;;;;;13.33;9.70;;;;;;;;;;4864631;29;20594;-76
2022/05/05 08:03:55;;;;;;;13.30;9.53;;;;;;;;;;4864580;29;20674;-77
2022/05/05 08:06:21;;;;;;;12.47;9.17;;;;;;;;;;4879931;29;20195;-77
2022/05/05 08:08:47;;;;;;;11.13;9.67;;;;;;;;;;4864710;29;20210;-77
2022/05/05 08:11:13;;;;;;;10.90;9.07;;;;;;;;;;4896747;29;20257;-76
2022/05/05 08:13:39;;;;;;;12.37;9.07;;;;;;;;;;4867717;29;20207;-76
2022/05/05 08:16:06;;;;;;;11.63;9.50;;;13.70;99.90;;;;;;4883272;29;20199;-77
2022/05/05 08:18:31;;;;;;;12.53;9.87;;;13.70;99.90;;;;;;4852609;29;20191;-77
2022/05/05 08:20:57;;;;;;;12.27;9.20;;;13.60;99.90;;;;;;4867721;29;20183;-77
2022/05/05 08:23:23;;;;;;;12.50;9.73;;;13.50;99.90;;;;;;4882950;29;20211;-77
2022/05/05 08:28:36;;;;;;;11.33;8.50;;;13.70;99.90;;;;;;4900375;29;20190;-77
2022/05/05 08:31:03;;;;;;;12.43;9.20;;;13.60;99.90;;;;;;4883558;29;20180;-77
2022/05/05 08:33:29;;;;;;;11.53;9.37;;;13.60;99.90;;;;;;4883039;29;20270;-77
2022/05/05 08:35:55;;;;;;;13.47;9.37;;;13.60;99.90;;;;;;4883055;29;20234;-77
2022/05/05 08:38:21;;;;;;;11.30;9.07;;;13.60;99.90;;;;;;4899913;29;20188;-77
2022/05/05 08:40:47;;;;;;;11.47;9.63;;;13.60;99.90;;;;;;4883317;29;20183;-77
2022/05/05 08:43:13;;;;;;;12.07;9.47;;;13.60;99.90;;;;;;4882752;29;20226;-77
2022/05/05 08:45:39;;;;;;;10.83;9.37;;;13.60;99.90;;;;;;4882979;29;20278;-77
2022/05/05 08:48:11;;;;;;;12.33;9.80;;;13.60;99.90;;;;;;4887091;29;20206;-77
2022/05/05 08:50:38;;;;;;;13.63;9.70;;;13.60;99.90;;;;;;4886837;29;20179;-78
2022/05/05 08:53:05;;;;;;;11.30;9.43;;;13.60;99.90;;;;;;4886228;29;20238;-77
2022/05/05 08:55:32;;;;;;;11.60;9.20;;;13.60;99.90;;;;;;4901464;29;20241;-77
2022/05/05 08:57:59;;;;;;;12.30;9.80;;;13.60;99.90;;;;;;4901718;29;20205;-77
2022/05/05 09:00:27;;;;;;;11.70;9.33;;;13.50;99.90;;;;;;4901529;29;20233;-77
2022/05/05 09:02:58;;;;;;;12.60;9.87;;;13.40;99.90;;;;;;4885828;29;20216;-77
2022/05/05 09:05:43;;;;;;;13.67;9.90;;;;;;;;;;4886367;29;20729;-77
2022/05/05 09:08:35;;;;;;;12.53;9.50;;;;;;;;;;4901533;29;20732;-77
2022/05/05 09:11:05;;;;;;;11.40;9.33;;;;;;;;;;4897857;29;20222;-77
2022/05/05 09:13:32;;;;;;;11.43;7.90;;;;;;;;;;4901009;29;20522;-77
2022/05/05 09:15:59;;;;;;;11.67;8.73;;;;;;;;;;4901829;29;20198;-78
2022/05/05 09:18:26;;;;;;;13.70;9.93;;;;;;;;;;4901883;29;20246;-78
2022/05/05 09:20:52;;;;;;;11.20;9.00;;;;;;;;;;4885759;29;20700;-77
2022/05/05 09:23:31;;;;;;;17.97;9.87;;;;;;;;;;4900095;29;20206;-77
2022/05/05 09:25:57;;;;;;;10.63;9.53;;;;;;;;;;4900637;29;20214;-76
2022/05/05 09:28:28;;;;;;;13.63;10.17;;;;;;;;;;4901264;29;20189;-77
2022/05/05 09:30:55;;;;;;;12.80;9.93;;;;;;;;;;4917795;29;20179;-77
2022/05/05 09:33:39;;;;;;;12.30;9.53;;;;;;;;;;4900757;29;20218;-77
2022/05/05 09:36:06;;;;;;;11.67;9.40;;;;;;;;;;4900555;29;20205;-77
2022/05/05 09:38:51;;;;;;;11.63;9.13;;;;;;;;;;4900592;29;20182;-77
2022/05/05 09:41:17;;;;;;;14.73;9.50;;;;;;;;;;4900669;29;20185;-78
2022/05/05 09:43:43;;;;;;;12.37;9.37;;;;;;;;;;4884979;29;20309;-77
2022/05/05 09:46:27;;;;;;;15.63;10.27;;;;;;;;;;4885168;29;20289;-78
2022/05/05 09:48:54;;;;;;;13.97;9.73;;;;;;;;;;4917618;29;20182;-77
2022/05/05 09:51:21;;;;;;;11.10;9.33;;;;;;;;;;4900612;29;20179;-77
2022/05/05 09:59:25;;;;;;;12.40;10.07;;;;;;;;;;4917623;29;20226;-78
2022/05/05 10:01:54;;;;;;;13.33;9.70;;;;;;;;;;4900356;29;20277;-78
2022/05/05 10:04:23;;;;;;;12.97;9.77;;;;;;;;;;4885590;29;20193;-77
2022/05/05 10:06:50;;;;;;;11.03;9.23;;;;;;;;;;4884983;29;20289;-78
2022/05/05 10:09:17;;;;;;;12.70;9.70;;;;;;;;;;4900284;29;20175;-77
2022/05/05 10:11:43;;;;;;;14.30;9.93;;;;;;;;;;4884394;29;20182;-77
2022/05/05 10:14:10;;;;;;;12.53;8.83;;;;;;;;;;4900256;29;20186;-77
2022/05/05 10:16:36;;;;;;;10.60;9.20;;;;;;;;;;4884902;29;20282;-77
2022/05/05 10:19:04;;;;;;;12.33;8.83;;;;;;;;;;4917466;29;20182;-76
2022/05/05 10:21:33;;;;;;;10.97;8.60;;;;;;;;;;4899947;29;20175;-76
2022/05/05 10:24:03;;;;;;;11.23;9.00;;;;;;;;;;4899728;29;20250;-76
2022/05/05 10:26:29;;;;;;;10.10;8.93;;;;;;;;;;4907086;23;20263;-78
2022/05/05 10:28:55;;;;;;;13.57;9.50;;;;;;;;;;4884399;29;20543;-77
2022/05/05 10:31:31;;;;;;;11.03;8.60;;;;;;;;;;4899878;29;20181;-76
2022/05/05 10:34:07;;;;;;;12.73;9.23;;;;;;;;;;4899652;29;20257;-77
2022/05/05 10:36:37;;;;;;;10.90;9.37;;;;;;;;;;4898828;29;20201;-77
2022/05/05 10:39:19;;;;;;;11.47;8.53;;;;;;;;;;4899885;29;20186;-79
2022/05/05 10:41:45;;;;;;;11.27;9.20;;;;;;;;;;4883887;29;20195;-78
2022/05/05 10:44:18;;;;;;;11.20;9.00;;;;;;;;;;4899562;29;20187;-78
2022/05/05 10:46:57;;;;;;;13.27;9.17;;;;;;;;;;4899473;29;20194;-78
2022/05/05 10:49:41;;;;;;;9.73;8.10;;;;;;;;;;4916358;29;20170;-78
2022/05/05 10:52:10;;;;;;;12.30;8.40;;;;;;;;;;4899417;29;20179;-78
2022/05/05 10:54:46;;;;;;;11.47;9.23;;;;;;;;;;4899700;29;20181;-78
2022/05/05 10:57:35;;;;;;;10.47;8.53;;;;;;;;;;4899313;29;20205;-78
2022/05/05 11:00:08;;;;;;;11.13;8.40;;;;;;;;;;4899469;29;20190;-78
2022/05/05 11:02:37;;;;;;;12.03;8.60;;;;;;;;;;4899003;29;20604;-78
2022/05/05 11:05:23;;;;;;;10.93;7.93;;;;;;;;;;4884307;29;20182;-78
2022/05/05 11:07:49;;;;;;;13.37;8.47;;;;;;;;;;4899130;29;20306;-78
2022/05/05 11:10:34;;;;;;;10.07;7.70;;;;;;;;;;4884010;29;20277;-78
2022/05/05 11:13:00;;;;;;;10.70;7.70;;;;;;;;;;4898864;29;20182;-80
2022/05/05 11:21:33;;;;;;;10.80;7.90;;;;;;;;;;4902457;29;20192;-77
2022/05/05 11:24:00;;;;;;;14.13;9.60;;;;;;;;;;4915698;29;20206;-77
2022/05/05 11:26:26;;;;;;;10.93;7.87;;;;;;;;;;4899412;29;20222;-77
2022/05/05 11:28:53;;;;;;;9.53;7.27;;;;;;;;;;4899749;29;20171;-76
2022/05/05 11:31:28;;;;;;;10.87;7.37;;;;;;;;;;4899324;29;20182;-75
2022/05/05 11:33:54;;;;;;;10.10;7.13;;;;;;;;;;4899255;29;20264;-75
2022/05/05 11:36:21;;;;;;;9.97;7.50;;;;;;;;;;4915753;29;20199;-75
2022/05/05 11:38:47;;;;;;;8.50;6.33;;;;;;;;;;4883273;29;20186;-74
2022/05/05 11:41:17;;;;;;;8.70;6.50;;;;;;;;;;4898996;29;20182;-75
2022/05/05 11:46:28;;;;;;;10.00;6.77;;;;;;;;;;4916309;29;20293;-77
2022/05/05 11:48:55;;;;;;;8.37;6.63;;;;;;;;;;4887218;29;20269;-75
2022/05/05 11:51:22;;;;;;;7.73;6.37;;;;;;;;;;4902961;29;20637;-77
2022/05/05 11:53:48;;;;;;;9.40;6.80;;;;;;;;;;4886738;29;20537;-76
2022/05/05 11:56:15;;;;;;;7.47;6.00;;;;;;;;;;4887149;29;20373;-76
2022/05/05 12:01:38;;;;;;;10.17;5.97;;;;;;;;;;4835436;29;20273;-76
2022/05/05 12:04:04;;;;;;;8.50;6.37;;;;;;;;;;4886850;29;20736;-76
2022/05/05 12:06:31;;;;;;;8.27;6.13;;;;;;;;;;4886829;29;20716;-78
2022/05/05 12:08:58;;;;;;;8.10;6.17;;;;;;;;;;4902357;29;20178;-77
2022/05/05 12:11:28;;;;;;;7.47;6.00;;;;;;;;;;4902349;29;20174;-77
2022/05/05 12:14:02;;;;;;;6.97;5.40;;;;;;;;;;4902117;29;20225;-77
2022/05/05 12:16:32;;;;;;;8.10;5.37;;;;;;;;;;4902114;29;20688;-75
2022/05/05 12:18:58;;;;;;;6.63;5.60;;;;;;;;;;4902369;29;20182;-77
2022/05/05 12:21:25;;;;;;;6.50;5.47;;;;;;;;;;4919151;29;20179;-76
2022/05/05 12:24:01;;;;;;;5.07;4.20;;;;;;;;;;4886439;29;20305;-77
2022/05/05 12:26:32;;;;;;;7.73;4.60;;;;;;;;;;4901975;29;20214;-77
2022/05/05 12:28:58;;;;;;;8.00;4.20;;;;;;;;;;4902039;29;20182;-77
2022/05/05 12:31:24;;;;;;;5.00;4.07;;;;;;;;;;4901906;29;20183;-77
2022/05/05 12:33:51;;;;;;;4.43;3.53;;;;;;;;;;4901915;29;20266;-77
2022/05/05 12:36:17;;;;;;;4.20;3.40;;;;;;;;;;4902176;29;20203;-77
2022/05/05 12:38:43;;;;;;;5.40;3.00;;;;;;;;;;4918602;29;20206;-77
2022/05/05 12:41:09;;;;;;;5.03;3.80;;;;;;;;;;4886481;29;20215;-77
2022/05/05 12:43:36;;;;;;;4.50;3.03;;;;;;;;;;4901444;29;20639;-77
2022/05/05 12:46:02;;;;;;;6.37;3.17;;;;;;;;;;4901626;29;20202;-77
2022/05/05 12:48:28;;;;;;;4.23;3.27;;;;;;;;;;4901753;29;20179;-77
2022/05/05 12:50:54;;;;;;;3.93;3.27;;;;;;;;;;4901835;29;20187;-77
2022/05/05 13:01:45;;;;;;;7.37;4.03;;;;;;;;;;4918602;29;20201;-78
2022/05/05 13:04:14;;;;;;;4.90;3.87;;;;;;;;;;4901117;29;20210;-77
2022/05/05 13:06:41;;;;;;;5.53;3.10;;;;;;;;;;4918065;29;20195;-77
2022/05/05 13:09:08;;;;;;;5.33;3.60;;;;;;;;;;4885724;29;20187;-77
2022/05/05 13:11:44;;;;;;;3.83;3.47;;;;;;;;;;4918218;29;20190;-78
2022/05/05 13:14:10;;;;;;;4.43;3.15;;;;;;;;;;4885670;29;20192;-77
2022/05/05 13:16:37;;;;;;;4.60;3.83;;;;;;;;;;4885584;29;20210;-77
2022/05/05 13:19:03;;;;;;;4.63;3.10;;;;;;;;;;4901068;29;20737;-77
2022/05/05 13:21:30;;;;;;;4.90;3.97;;;;;;;;;;4885466;29;20186;-77
2022/05/05 13:23:56;;;;;;;5.82;3.83;;;;;;;;;;4901114;29;20294;-77
2022/05/05 13:26:22;;;;;;;3.97;3.58;;;;;;;;;;4917829;29;20210;-77
2022/05/05 13:28:48;;;;;;;4.18;3.78;;;;;;;;;;4901061;29;20203;-77
2022/05/05 13:31:14;;;;;;;4.15;3.75;;;;;;;;;;4900998;29;20178;-77
2022/05/05 13:33:41;;;;;;;5.70;3.78;;;;;;;;;;4885044;29;20219;-77
2022/05/05 13:36:08;;;;;;;5.30;3.72;;;;;;;;;;4900708;29;20205;-77
2022/05/05 13:38:34;;;;;;;6.32;3.75;;;;;;;;;;4900899;29;20179;-77
2022/05/05 13:41:00;;;;;;;4.57;3.50;;;;;;;;;;4900706;29;20182;-78
2022/05/05 13:43:33;;;;;;;3.45;3.08;;;;;;;;;;4885144;29;20225;-77
2022/05/05 13:45:59;;;;;;;5.20;3.80;;;;;;;;;;4885604;29;20705;-77
2022/05/05 13:48:25;;;;;;;5.53;3.30;;;;;;;;;;4901267;29;20179;-77
2022/05/05 13:50:51;;;;;;;3.60;3.28;;;;;;;;;;4900889;29;20175;-77
2022/05/05 13:53:17;;;;;;;4.63;3.80;;;;;;;;;;4885171;29;20178;-77
2022/05/05 13:55:45;;;;;;;4.72;3.92;;;;;;;;;;4918267;29;20681;-77
2022/05/05 13:58:12;;;;;;;6.13;3.60;;;;;;;;;;4900912;29;20201;-77
2022/05/05 14:00:38;;;;;;;4.75;3.40;;;;;;;;;;4901204;29;20692;-77
2022/05/05 14:03:04;;;;;;;4.65;3.55;;;;;;;;;;4900921;29;20225;-77
2022/05/05 14:05:33;;;;;;;3.72;3.28;;;;;;;;;;4900678;29;20293;-77
2022/05/05 14:13:28;;;;;;;5.10;3.67;;;;;;;;;;4903499;29;20174;-77
2022/05/05 14:15:55;;;;;;;3.72;2.95;;;;;;;;;;4885399;29;20253;-77
2022/05/05 14:18:23;;;;;;;4.45;3.28;;;;;;;;;;4900828;29;20297;-77
2022/05/05 14:20:49;;;;;;;5.10;2.80;;;;;;;;;;4884965;29;20689;-77
2022/05/05 14:23:15;;;;;;;3.92;2.83;;;;;;;;;;4901299;29;20209;-77
2022/05/05 14:25:41;;;;;;;4.85;3.10;;;;;;;;;;4884933;29;20214;-77
2022/05/05 14:28:08;;;;;;;5.13;3.40;;;;;;;;;;4900631;29;20181;-77
2022/05/05 14:30:34;;;;;;;5.75;3.22;;;;;;;;;;4885168;29;20234;-77
2022/05/05 14:33:00;;;;;;;4.82;3.00;;;;;;;;;;4884822;29;20179;-77
2022/05/05 14:35:26;;;;;;;3.63;2.88;;;;;;;;;;4884573;29;20273;-77
2022/05/05 14:37:52;;;;;;;5.13;2.90;;;;;;;;;;4900895;29;20229;-78
2022/05/05 14:40:18;;;;;;;6.05;3.40;;;;;;;;;;4900051;29;20712;-77
2022/05/05 14:42:45;;;;;;;3.10;2.75;;;;;;;;;;4900107;29;20209;-77
2022/05/05 14:45:16;;;;;;;4.38;2.92;;;;;;;;;;4884916;29;20234;-77
2022/05/05 14:47:42;;;;;;;3.40;2.72;;;;;;;;;;4885801;29;20174;-77